Time;durP1;ratioP1;P1;durP2;ratioP2;P2;SDS_P1;SDS_P2;PMS_P1;PMS_P2;Temp;Humidity;BMP_temperature;BMP_pressure;BME280_temperature;BME280_humidity;BME280_pressure;Samples;Min_cycle;Max_cycle;Signal;HPM_P1;HPM_P2
2022/06/26 00:01:17;;;;;;;2.47;2.15;;;23.80;57.60;;;;;;4868583;29;20450;-80
2022/06/26 00:03:43;;;;;;;2.17;1.77;;;23.80;57.60;;;;;;4899185;29;20029;-80
2022/06/26 00:06:09;;;;;;;2.40;1.92;;;23.70;57.60;;;;;;4915137;29;20070;-79
2022/06/26 00:08:35;;;;;;;2.33;1.70;;;23.70;57.70;;;;;;4901098;29;20029;-78
2022/06/26 00:11:01;;;;;;;2.05;1.67;;;23.70;57.70;;;;;;4868433;29;20052;-80
2022/06/26 00:13:26;;;;;;;2.95;1.98;;;23.70;57.70;;;;;;4898522;29;20041;-80
2022/06/26 00:15:52;;;;;;;2.75;2.05;;;23.60;57.70;;;;;;4883628;29;20433;-81
2022/06/26 00:18:18;;;;;;;1.90;1.73;;;23.60;57.70;;;;;;4902036;29;20056;-80
2022/06/26 00:20:44;;;;;;;2.55;1.95;;;23.60;57.80;;;;;;4871182;29;20481;-80
2022/06/26 00:23:09;;;;;;;2.05;1.85;;;23.60;57.80;;;;;;4870972;29;20028;-80
2022/06/26 00:25:35;;;;;;;2.40;1.95;;;23.60;57.90;;;;;;4902336;29;20021;-79
2022/06/26 00:28:01;;;;;;;2.38;2.00;;;23.50;57.90;;;;;;4871050;29;20119;-79
2022/06/26 00:30:27;;;;;;;2.88;2.00;;;23.50;58.00;;;;;;4901837;29;20039;-80
2022/06/26 00:32:52;;;;;;;2.42;2.00;;;23.50;58.10;;;;;;4886783;29;20036;-80
2022/06/26 00:35:18;;;;;;;2.78;2.08;;;23.50;58.20;;;;;;4917321;29;20064;-80
2022/06/26 00:37:44;;;;;;;2.67;2.00;;;23.50;58.10;;;;;;4917418;29;20043;-80
2022/06/26 00:40:10;;;;;;;2.78;2.20;;;23.50;58.20;;;;;;4918921;29;20454;-80
2022/06/26 00:42:37;;;;;;;2.20;2.00;;;23.50;58.30;;;;;;4901796;29;20064;-80
2022/06/26 00:45:04;;;;;;;2.85;2.10;;;23.40;58.20;;;;;;4918736;29;20489;-79
2022/06/26 00:47:33;;;;;;;2.80;2.15;;;23.40;58.30;;;;;;4917514;29;20589;-80
2022/06/26 00:49:59;;;;;;;2.60;2.17;;;23.40;58.30;;;;;;4887156;29;20058;-80
2022/06/26 00:52:28;;;;;;;2.55;2.28;;;23.40;58.40;;;;;;4870427;29;20070;-79
2022/06/26 00:54:54;;;;;;;2.65;2.25;;;23.30;58.40;;;;;;4901800;29;20021;-80
2022/06/26 00:57:21;;;;;;;2.67;2.20;;;23.30;58.40;;;;;;4917651;29;20445;-80
2022/06/26 00:59:48;;;;;;;2.63;2.17;;;23.30;58.50;;;;;;4886587;29;20020;-80
2022/06/26 01:02:14;;;;;;;3.47;2.50;;;23.30;58.50;;;;;;4885890;29;20047;-80
2022/06/26 01:04:40;;;;;;;2.95;2.28;;;23.30;58.60;;;;;;4917489;29;20028;-79
2022/06/26 01:07:06;;;;;;;2.83;2.03;;;23.20;58.50;;;;;;4917032;29;20088;-78
2022/06/26 01:09:32;;;;;;;2.45;2.05;;;23.30;58.60;;;;;;4918491;29;20426;-79
2022/06/26 01:11:57;;;;;;;2.45;2.13;;;23.20;58.70;;;;;;4885601;29;20044;-79
2022/06/26 01:14:24;;;;;;;2.92;2.50;;;23.20;58.70;;;;;;4885977;29;20438;-80
2022/06/26 01:16:50;;;;;;;3.33;2.20;;;23.20;58.80;;;;;;4901864;29;20043;-80
2022/06/26 01:19:19;;;;;;;3.08;2.40;;;23.20;58.80;;;;;;4885180;29;20115;-80
2022/06/26 01:21:45;;;;;;;2.42;2.00;;;23.20;58.80;;;;;;4901129;29;20050;-80
2022/06/26 01:24:11;;;;;;;2.95;2.30;;;23.10;58.70;;;;;;4915872;29;20080;-80
2022/06/26 01:26:37;;;;;;;2.75;2.20;;;23.10;58.70;;;;;;4917026;29;20036;-79
2022/06/26 01:29:04;;;;;;;2.53;2.17;;;23.10;58.70;;;;;;4917099;29;20104;-80
2022/06/26 01:31:34;;;;;;;3.10;2.47;;;23.10;58.80;;;;;;4885649;29;20047;-80
2022/06/26 01:34:06;;;;;;;2.25;1.90;;;23.10;58.80;;;;;;4901002;29;20051;-80
2022/06/26 01:36:31;;;;;;;2.85;2.10;;;23.10;58.90;;;;;;4918103;29;20036;-80
2022/06/26 01:38:58;;;;;;;2.92;2.47;;;23.10;58.90;;;;;;4885513;29;20120;-80
2022/06/26 01:41:25;;;;;;;2.63;2.20;;;23.10;58.90;;;;;;4885366;29;20122;-80
2022/06/26 01:43:51;;;;;;;3.05;2.38;;;23.10;58.90;;;;;;4900844;29;20024;-80
2022/06/26 01:46:18;;;;;;;3.35;2.53;;;23.10;59.00;;;;;;4918040;29;20036;-80
2022/06/26 01:48:46;;;;;;;2.58;2.33;;;23.00;58.90;;;;;;4900739;29;20084;-80
2022/06/26 01:51:13;;;;;;;3.13;2.42;;;23.00;59.00;;;;;;4918037;29;20044;-80
2022/06/26 01:53:42;;;;;;;2.90;2.40;;;23.00;59.00;;;;;;4885609;29;20028;-80
2022/06/26 01:56:08;;;;;;;2.88;2.25;;;23.00;59.00;;;;;;4916577;29;20162;-81
2022/06/26 01:58:38;;;;;;;2.67;2.42;;;23.00;59.10;;;;;;4917710;29;20036;-80
2022/06/26 02:01:05;;;;;;;2.85;2.35;;;23.00;59.10;;;;;;4869650;29;20092;-79
2022/06/26 02:03:31;;;;;;;3.40;2.45;;;23.00;59.20;;;;;;4854568;29;20418;-80
2022/06/26 02:05:56;;;;;;;2.58;2.20;;;22.90;59.10;;;;;;4900474;29;20127;-82
2022/06/26 02:08:22;;;;;;;2.33;2.05;;;22.90;59.10;;;;;;4901019;29;20074;-80
2022/06/26 02:13:37;;;;;;;2.22;2.03;;;22.90;59.20;;;;;;4888021;29;20044;-80
2022/06/26 02:16:04;;;;;;;2.65;2.15;;;22.90;59.20;;;;;;4900915;29;20390;-80
2022/06/26 02:18:31;;;;;;;3.05;2.15;;;22.90;59.30;;;;;;4912899;29;20076;-80
2022/06/26 02:20:57;;;;;;;3.67;2.80;;;22.80;59.30;;;;;;4897422;29;20104;-79
2022/06/26 02:23:23;;;;;;;3.33;2.35;;;22.80;59.30;;;;;;4882347;29;20346;-80
2022/06/26 02:25:51;;;;;;;3.35;2.40;;;22.90;59.40;;;;;;4897596;29;20037;-81
2022/06/26 02:28:17;;;;;;;3.17;2.53;;;22.80;59.40;;;;;;4881674;29;20052;-80
2022/06/26 02:30:43;;;;;;;3.00;2.35;;;22.80;59.40;;;;;;4896899;29;20473;-79
2022/06/26 02:33:09;;;;;;;3.53;2.70;;;22.80;59.50;;;;;;4913503;29;20033;-80
2022/06/26 02:35:34;;;;;;;3.22;2.33;;;22.80;59.50;;;;;;4899860;29;20034;-80
2022/06/26 02:38:00;;;;;;;2.88;2.30;;;22.80;59.50;;;;;;4903027;29;20047;-81
2022/06/26 02:40:28;;;;;;;3.28;2.67;;;22.80;59.60;;;;;;4919689;29;20040;-79
2022/06/26 02:42:55;;;;;;;3.17;2.70;;;22.70;59.50;;;;;;4887588;29;20445;-80
2022/06/26 02:45:21;;;;;;;2.58;2.22;;;22.70;59.50;;;;;;4903237;29;20044;-80
2022/06/26 02:47:47;;;;;;;2.58;2.38;;;22.70;59.60;;;;;;4902909;29;20033;-79
2022/06/26 02:50:15;;;;;;;2.40;2.20;;;22.70;59.60;;;;;;4888137;29;20039;-80
2022/06/26 02:52:41;;;;;;;3.10;2.40;;;22.70;59.70;;;;;;4903249;29;20092;-80
2022/06/26 02:55:08;;;;;;;3.05;2.60;;;22.60;59.60;;;;;;4903406;29;20169;-79
2022/06/26 02:57:37;;;;;;;3.08;2.50;;;22.60;59.60;;;;;;4902281;29;20029;-81
2022/06/26 03:00:05;;;;;;;3.58;2.35;;;22.60;59.70;;;;;;4887905;29;20496;-80
2022/06/26 03:02:33;;;;;;;2.63;2.30;;;22.60;59.70;;;;;;4902670;29;20035;-79
2022/06/26 03:05:05;;;;;;;2.55;2.33;;;22.60;59.80;;;;;;4903269;29;20471;-81
2022/06/26 03:07:30;;;;;;;2.80;2.50;;;22.60;59.80;;;;;;4902564;29;20024;-81
2022/06/26 03:09:59;;;;;;;3.15;2.38;;;22.60;59.80;;;;;;4918786;29;20032;-80
2022/06/26 03:12:26;;;;;;;3.20;2.38;;;22.50;59.80;;;;;;4887461;29;20083;-80
2022/06/26 03:14:52;;;;;;;2.85;2.40;;;22.50;59.80;;;;;;4918818;29;20060;-80
2022/06/26 03:17:19;;;;;;;3.22;2.70;;;22.50;59.80;;;;;;4902923;29;20056;-80
2022/06/26 03:19:46;;;;;;;3.42;2.58;;;22.50;59.80;;;;;;4888203;29;20097;-79
2022/06/26 03:22:12;;;;;;;4.15;2.60;;;22.50;59.90;;;;;;4918683;29;20036;-81
2022/06/26 03:24:38;;;;;;;2.97;2.28;;;22.40;59.90;;;;;;4887305;29;20101;-81
2022/06/26 03:27:05;;;;;;;3.60;2.70;;;22.50;60.00;;;;;;4887943;29;20036;-80
2022/06/26 03:29:31;;;;;;;2.72;2.40;;;22.40;60.00;;;;;;4887291;29;20037;-79
2022/06/26 03:32:00;;;;;;;2.85;2.40;;;22.40;60.00;;;;;;4887000;29;20139;-80
2022/06/26 03:34:26;;;;;;;3.03;2.50;;;22.40;60.00;;;;;;4886970;29;20033;-80
2022/06/26 03:36:51;;;;;;;3.40;2.75;;;22.40;60.00;;;;;;4887814;29;20462;-79
2022/06/26 03:39:18;;;;;;;3.33;2.70;;;22.40;60.10;;;;;;4902785;29;20028;-79
2022/06/26 03:41:57;;;;;;;3.22;2.58;;;22.40;60.10;;;;;;4902674;29;20524;-81
2022/06/26 03:44:27;;;;;;;3.28;2.58;;;22.40;60.10;;;;;;4887777;29;20032;-80
2022/06/26 03:46:53;;;;;;;3.70;2.90;;;22.30;60.10;;;;;;4916346;29;20036;-81
2022/06/26 03:49:19;;;;;;;3.72;2.65;;;22.30;60.10;;;;;;4900022;29;20016;-81
2022/06/26 03:51:46;;;;;;;2.63;2.28;;;22.30;60.20;;;;;;4884154;29;20478;-80
2022/06/26 03:54:13;;;;;;;3.15;2.60;;;22.30;60.20;;;;;;4899782;29;20037;-80
2022/06/26 03:56:39;;;;;;;3.42;2.95;;;22.30;60.90;;;;;;4899462;29;20033;-80
2022/06/26 03:59:05;;;;;;;3.25;2.80;;;22.30;60.20;;;;;;4868665;29;20039;-80
2022/06/26 04:01:34;;;;;;;3.85;2.65;;;22.30;60.30;;;;;;4899209;29;20037;-80
2022/06/26 04:04:00;;;;;;;3.65;2.85;;;22.30;60.30;;;;;;4915680;29;20107;-80
2022/06/26 04:06:26;;;;;;;3.47;2.67;;;22.30;60.30;;;;;;4884356;29;20454;-80
2022/06/26 04:08:52;;;;;;;4.63;3.45;;;22.20;60.30;;;;;;4883972;29;20048;-80
2022/06/26 04:11:18;;;;;;;3.60;2.95;;;22.20;60.30;;;;;;4883500;29;20048;-80
2022/06/26 04:13:53;;;;;;;4.00;3.10;;;22.20;60.40;;;;;;4883441;29;20025;-80
2022/06/26 04:16:19;;;;;;;3.95;2.97;;;22.20;60.40;;;;;;4915074;29;20041;-80
2022/06/26 04:18:47;;;;;;;5.00;3.58;;;22.20;60.50;;;;;;4883323;29;20147;-81
2022/06/26 04:21:13;;;;;;;4.53;3.30;;;22.20;60.40;;;;;;4898896;29;20028;-81
2022/06/26 04:23:39;;;;;;;3.75;3.20;;;22.20;60.50;;;;;;4898998;29;20108;-80
2022/06/26 04:26:15;;;;;;;4.43;3.17;;;22.20;60.50;;;;;;4884695;29;20395;-81
2022/06/26 04:28:41;;;;;;;4.50;3.65;;;22.10;60.50;;;;;;4882844;29;20177;-80
2022/06/26 04:31:08;;;;;;;4.80;3.80;;;22.10;60.50;;;;;;4914601;29;20037;-81
2022/06/26 04:33:35;;;;;;;4.28;3.08;;;22.10;60.60;;;;;;4898941;29;20040;-80
2022/06/26 04:36:05;;;;;;;4.32;3.58;;;22.10;60.60;;;;;;4883072;29;20108;-80
2022/06/26 04:38:31;;;;;;;4.45;3.70;;;22.10;60.60;;;;;;4883334;29;20274;-81
2022/06/26 04:40:58;;;;;;;4.75;3.72;;;22.10;60.60;;;;;;4883549;29;20081;-79
2022/06/26 04:43:23;;;;;;;4.28;3.33;;;22.10;60.70;;;;;;4898798;29;20044;-79
2022/06/26 04:45:49;;;;;;;5.43;3.78;;;22.10;60.60;;;;;;4882825;29;20401;-79
2022/06/26 04:48:17;;;;;;;4.78;3.58;;;22.10;60.70;;;;;;4882907;29;20028;-81
2022/06/26 04:50:43;;;;;;;4.80;3.78;;;22.00;60.60;;;;;;4882760;29;20115;-80
2022/06/26 04:53:09;;;;;;;4.97;3.75;;;22.00;60.60;;;;;;4882961;29;20394;-80
2022/06/26 04:55:36;;;;;;;4.95;3.67;;;22.00;60.70;;;;;;4914163;29;20495;-79
2022/06/26 04:58:02;;;;;;;4.82;4.05;;;22.00;60.70;;;;;;4883235;29;20060;-80
2022/06/26 05:00:28;;;;;;;5.15;4.07;;;22.00;60.70;;;;;;4914047;29;20028;-79
2022/06/26 05:03:17;;;;;;;5.55;4.25;;;22.00;60.80;;;;;;4893843;29;20045;-80
2022/06/26 05:05:52;;;;;;;5.53;3.60;;;21.90;60.70;;;;;;4914167;29;20037;-80
2022/06/26 05:08:29;;;;;;;4.97;4.10;;;21.90;60.70;;;;;;4882847;29;20435;-80
2022/06/26 05:10:55;;;;;;;4.95;3.70;;;21.90;60.70;;;;;;4898050;29;20037;-80
2022/06/26 05:13:20;;;;;;;5.10;3.95;;;21.90;60.80;;;;;;4898195;29;20104;-81
2022/06/26 05:15:57;;;;;;;4.53;3.33;;;21.90;60.80;;;;;;4898033;29;20037;-80
2022/06/26 05:18:23;;;;;;;5.03;3.95;;;21.90;60.80;;;;;;4876035;29;20057;-79
2022/06/26 05:20:52;;;;;;;5.78;4.20;;;21.90;60.90;;;;;;4897958;29;20051;-81
2022/06/26 05:23:18;;;;;;;5.20;3.95;;;21.90;60.90;;;;;;4882831;29;20354;-80
2022/06/26 05:25:56;;;;;;;5.45;4.05;;;21.90;60.90;;;;;;4897894;29;20124;-80
2022/06/26 05:28:22;;;;;;;5.18;3.67;;;21.90;60.90;;;;;;4882072;29;20081;-80
2022/06/26 05:30:47;;;;;;;4.97;4.00;;;21.80;60.90;;;;;;4882072;29;20033;-80
2022/06/26 05:33:13;;;;;;;5.25;4.28;;;21.80;60.90;;;;;;4897880;29;20072;-79
2022/06/26 05:35:39;;;;;;;5.25;3.95;;;21.80;60.90;;;;;;4882435;29;20119;-81
2022/06/26 05:38:05;;;;;;;5.18;4.20;;;21.80;60.90;;;;;;4897779;29;20052;-80
2022/06/26 05:40:32;;;;;;;4.75;3.80;;;21.80;61.00;;;;;;4866505;29;20039;-81
2022/06/26 05:42:58;;;;;;;5.40;4.05;;;21.80;61.00;;;;;;4882100;29;20040;-80
2022/06/26 05:45:25;;;;;;;5.07;4.03;;;21.80;61.00;;;;;;4882127;29;20036;-80
2022/06/26 05:48:09;;;;;;;5.43;4.07;;;21.80;61.00;;;;;;4884937;29;20104;-79
2022/06/26 05:50:58;;;;;;;4.70;3.67;;;21.80;61.00;;;;;;4874678;29;20281;-80
2022/06/26 05:53:47;;;;;;;5.15;3.88;;;21.70;61.00;;;;;;4884896;29;20522;-81
2022/06/26 05:56:30;;;;;;;5.28;4.22;;;21.70;61.00;;;;;;4897887;29;20484;-80
2022/06/26 05:59:13;;;;;;;5.10;3.55;;;21.70;61.00;;;;;;4884665;29;20028;-80
2022/06/26 06:02:02;;;;;;;5.22;3.88;;;21.70;61.10;;;;;;4871225;29;20051;-79
2022/06/26 06:04:27;;;;;;;5.70;4.28;;;21.70;61.10;;;;;;4866306;29;20040;-80
2022/06/26 06:06:57;;;;;;;4.90;3.90;;;21.60;61.10;;;;;;4897644;29;20033;-80
2022/06/26 06:09:22;;;;;;;5.95;4.55;;;21.70;61.20;;;;;;4897671;29;20085;-81
2022/06/26 06:11:48;;;;;;;5.00;3.72;;;21.60;61.20;;;;;;4881170;29;20482;-80
2022/06/26 06:14:18;;;;;;;4.90;3.60;;;21.60;61.20;;;;;;4897174;29;20033;-80
2022/06/26 06:16:43;;;;;;;5.32;4.13;;;21.70;61.30;;;;;;4881400;29;20123;-81
2022/06/26 06:19:09;;;;;;;4.93;3.75;;;21.70;61.30;;;;;;4917077;29;20056;-81
2022/06/26 06:21:40;;;;;;;4.95;3.72;;;21.60;61.20;;;;;;4886155;29;20470;-81
2022/06/26 06:24:06;;;;;;;4.70;3.65;;;21.70;61.30;;;;;;4915927;29;20372;-80
2022/06/26 06:26:33;;;;;;;5.63;3.65;;;21.70;61.30;;;;;;4884384;29;20028;-81
2022/06/26 06:29:09;;;;;;;5.43;3.78;;;21.70;61.30;;;;;;4886167;29;20095;-78
2022/06/26 06:31:35;;;;;;;5.20;3.95;;;21.70;61.30;;;;;;4915506;29;20048;-79
2022/06/26 06:34:02;;;;;;;5.13;3.58;;;21.60;61.30;;;;;;4915990;29;20076;-79
2022/06/26 06:36:30;;;;;;;5.18;4.05;;;21.60;61.30;;;;;;4869213;29;20388;-80
2022/06/26 06:38:57;;;;;;;5.20;3.97;;;21.60;61.30;;;;;;4869403;29;20100;-81
2022/06/26 06:41:23;;;;;;;4.85;3.60;;;21.70;61.40;;;;;;4916014;29;20036;-80
2022/06/26 06:44:07;;;;;;;5.93;3.65;;;21.60;61.30;;;;;;4916051;29;20024;-81
2022/06/26 06:47:08;;;;;;;4.40;3.22;;;21.60;61.30;;;;;;4876858;29;20064;-81
2022/06/26 06:49:49;;;;;;;4.45;3.25;;;21.60;61.30;;;;;;4915784;29;20041;-79
2022/06/26 06:52:15;;;;;;;4.50;3.03;;;21.60;61.30;;;;;;4916129;29;20051;-79
2022/06/26 06:54:41;;;;;;;4.85;3.45;;;21.60;61.30;;;;;;4916044;29;20520;-80
2022/06/26 06:57:07;;;;;;;4.43;3.10;;;21.60;61.30;;;;;;4916769;29;20068;-79
2022/06/26 06:59:33;;;;;;;3.88;2.90;;;21.60;61.30;;;;;;4884022;29;20017;-80
2022/06/26 07:01:59;;;;;;;4.13;3.20;;;21.60;61.40;;;;;;4868696;29;20040;-79
2022/06/26 07:04:24;;;;;;;4.32;3.15;;;21.60;61.40;;;;;;4884338;29;20492;-82
2022/06/26 07:06:51;;;;;;;4.28;3.00;;;21.60;61.40;;;;;;4915604;29;20028;-81
2022/06/26 07:09:17;;;;;;;4.00;3.00;;;21.60;61.40;;;;;;4884686;29;20365;-80
2022/06/26 07:11:46;;;;;;;3.85;3.10;;;21.70;61.40;;;;;;4915381;29;20385;-79
2022/06/26 07:14:12;;;;;;;4.25;2.90;;;21.60;61.40;;;;;;4883864;29;20400;-81
2022/06/26 07:16:40;;;;;;;4.18;3.05;;;21.70;61.40;;;;;;4915626;29;20131;-81
2022/06/26 07:19:07;;;;;;;3.60;2.92;;;21.70;61.40;;;;;;4915788;29;20068;-81
2022/06/26 07:21:33;;;;;;;4.03;2.90;;;21.70;61.40;;;;;;4884422;29;20040;-82
2022/06/26 07:24:04;;;;;;;3.63;2.80;;;21.70;61.40;;;;;;4888365;29;20043;-81
2022/06/26 07:26:56;;;;;;;4.18;2.80;;;21.70;61.40;;;;;;4915693;29;20032;-80
2022/06/26 07:29:21;;;;;;;3.33;2.70;;;21.70;61.40;;;;;;4902332;29;20526;-80
2022/06/26 07:31:48;;;;;;;3.47;2.55;;;21.70;61.40;;;;;;4918676;29;20071;-80
2022/06/26 07:34:17;;;;;;;3.47;2.90;;;21.80;61.40;;;;;;4903697;29;20036;-81
2022/06/26 07:36:45;;;;;;;3.58;2.65;;;21.80;61.40;;;;;;4903113;29;20537;-80
2022/06/26 07:39:15;;;;;;;3.70;2.72;;;21.80;61.40;;;;;;4887297;29;20032;-81
2022/06/26 07:41:45;;;;;;;3.10;2.50;;;21.80;61.30;;;;;;4919279;29;20072;-80
2022/06/26 07:44:11;;;;;;;2.65;2.20;;;21.90;62.00;;;;;;4919199;29;20044;-80
2022/06/26 07:46:38;;;;;;;3.67;2.60;;;21.90;61.20;;;;;;4902988;29;20064;-80
2022/06/26 07:49:07;;;;;;;2.88;2.20;;;22.00;61.20;;;;;;4902901;29;20024;-82
2022/06/26 07:51:34;;;;;;;3.10;2.38;;;22.00;61.20;;;;;;4902767;29;20028;-81
2022/06/26 07:54:00;;;;;;;2.55;2.05;;;22.10;61.20;;;;;;4902576;29;20040;-80
2022/06/26 07:56:27;;;;;;;2.58;2.25;;;22.10;61.80;;;;;;4902850;29;20073;-79
2022/06/26 07:58:53;;;;;;;3.35;2.22;;;22.20;61.10;;;;;;4902674;29;20079;-81
2022/06/26 08:01:20;;;;;;;2.92;2.15;;;22.20;61.00;;;;;;4902743;29;20032;-79
2022/06/26 08:03:46;;;;;;;2.50;2.10;;;22.30;61.00;;;;;;4902767;29;20036;-81
2022/06/26 08:06:12;;;;;;;2.80;2.20;;;22.30;60.90;;;;;;4902457;29;20103;-79
2022/06/26 08:08:38;;;;;;;2.28;2.05;;;22.40;60.80;;;;;;4887475;29;20492;-80
2022/06/26 08:11:04;;;;;;;2.55;1.98;;;22.40;60.80;;;;;;4887084;29;20032;-80
2022/06/26 08:13:30;;;;;;;2.72;1.90;;;22.50;60.70;;;;;;4886804;29;20092;-79
2022/06/26 08:15:56;;;;;;;2.13;1.88;;;22.60;60.70;;;;;;4887362;29;20036;-82
2022/06/26 08:18:22;;;;;;;2.85;2.00;;;22.60;60.60;;;;;;4902582;29;20043;-83
2022/06/26 08:20:48;;;;;;;3.03;1.92;;;22.70;60.50;;;;;;4918865;29;20438;-82
2022/06/26 08:23:14;;;;;;;2.20;1.80;;;22.70;60.50;;;;;;4919582;29;20040;-85
2022/06/26 08:25:40;;;;;;;2.47;1.90;;;22.80;60.40;;;;;;4887161;29;20055;-82
2022/06/26 08:28:06;;;;;;;2.85;1.70;;;22.80;61.00;;;;;;4894653;29;20040;-81
2022/06/26 08:30:32;;;;;;;1.60;1.50;;;22.90;60.30;;;;;;4902816;29;20039;-80
2022/06/26 08:32:59;;;;;;;2.53;1.70;;;22.90;60.20;;;;;;4918519;29;20048;-80
2022/06/26 08:35:26;;;;;;;2.08;1.58;;;23.00;60.20;;;;;;4902403;29;20040;-81
2022/06/26 08:37:53;;;;;;;1.92;1.55;;;23.00;60.20;;;;;;4902412;29;20028;-79
2022/06/26 08:40:19;;;;;;;2.13;1.60;;;23.00;60.10;;;;;;4918165;29;20389;-80
2022/06/26 08:42:52;;;;;;;1.63;1.50;;;23.10;60.10;;;;;;4918585;29;20032;-80
2022/06/26 08:45:22;;;;;;;2.20;1.50;;;23.10;60.10;;;;;;4902094;29;20512;-79
2022/06/26 08:47:51;;;;;;;1.50;1.40;;;23.20;60.10;;;;;;4901841;29;20028;-80
2022/06/26 08:50:21;;;;;;;2.25;1.38;;;23.20;60.00;;;;;;4901668;29;20039;-80
2022/06/26 08:52:51;;;;;;;2.50;1.50;;;23.20;59.90;;;;;;4900927;29;20044;-80
2022/06/26 08:55:17;;;;;;;1.67;1.40;;;23.30;59.90;;;;;;4917342;29;20020;-79
2022/06/26 08:57:43;;;;;;;1.95;1.38;;;23.30;59.90;;;;;;4901366;29;20487;-79
2022/06/26 09:00:09;;;;;;;1.48;1.30;;;23.40;59.90;;;;;;4901461;29;20109;-79
2022/06/26 09:02:35;;;;;;;1.95;1.60;;;23.30;59.80;;;;;;4885829;29;20437;-79
2022/06/26 09:05:01;;;;;;;2.50;1.60;;;23.40;59.80;;;;;;4901568;29;20024;-80
2022/06/26 09:07:27;;;;;;;2.08;1.30;;;23.40;59.70;;;;;;4886508;29;20046;-80
2022/06/26 09:09:52;;;;;;;1.63;1.50;;;23.40;59.70;;;;;;4885825;29;20378;-80
2022/06/26 09:12:18;;;;;;;1.50;1.40;;;23.50;59.70;;;;;;4885866;29;20075;-80
2022/06/26 09:14:44;;;;;;;2.13;1.30;;;23.50;59.70;;;;;;4885594;29;20036;-81
2022/06/26 09:17:10;;;;;;;2.20;1.40;;;23.60;59.70;;;;;;4916661;29;20052;-80
2022/06/26 09:19:38;;;;;;;2.28;1.30;;;23.60;59.60;;;;;;4917864;29;20040;-80
2022/06/26 09:22:13;;;;;;;2.53;1.55;;;23.60;59.60;;;;;;4901060;29;20421;-79
2022/06/26 09:24:50;;;;;;;1.60;1.35;;;23.60;59.60;;;;;;4918202;29;20123;-80
2022/06/26 09:27:16;;;;;;;1.38;1.27;;;23.60;59.50;;;;;;4887184;29;20360;-80
2022/06/26 09:29:48;;;;;;;1.80;1.40;;;23.60;60.10;;;;;;4917062;29;20028;-81
2022/06/26 09:32:15;;;;;;;1.45;1.35;;;23.70;59.60;;;;;;4901019;29;20548;-80
2022/06/26 09:34:52;;;;;;;1.40;1.30;;;23.70;59.50;;;;;;4916217;29;20039;-80
2022/06/26 09:37:23;;;;;;;2.22;1.42;;;23.70;59.50;;;;;;4885816;29;20028;-81
2022/06/26 09:39:48;;;;;;;1.90;1.50;;;23.80;59.50;;;;;;4917636;29;20036;-83
2022/06/26 09:42:18;;;;;;;2.22;1.33;;;23.80;59.40;;;;;;4917443;29;20170;-86
2022/06/26 09:44:54;;;;;;;2.00;1.50;;;23.80;59.40;;;;;;4899886;29;20028;-83
2022/06/26 09:47:25;;;;;;;2.72;1.40;;;23.90;59.40;;;;;;4885766;29;20127;-84
2022/06/26 09:49:53;;;;;;;2.20;1.30;;;23.90;59.30;;;;;;4916498;29;20060;-82
2022/06/26 09:52:24;;;;;;;2.10;1.33;;;24.00;59.30;;;;;;4900536;29;20047;-81
2022/06/26 09:54:51;;;;;;;1.73;1.55;;;24.00;59.30;;;;;;4900808;29;20465;-83
2022/06/26 09:57:17;;;;;;;1.85;1.25;;;24.00;59.20;;;;;;4871608;29;20091;-82
2022/06/26 09:59:43;;;;;;;1.20;1.10;;;24.00;59.20;;;;;;4917476;29;20573;-82
2022/06/26 10:07:48;;;;;;;2.08;1.35;;;24.10;59.10;;;;;;4917199;29;20037;-82
2022/06/26 10:10:19;;;;;;;1.85;1.60;;;24.10;59.00;;;;;;4917129;29;20482;-85
2022/06/26 10:12:53;;;;;;;1.45;1.23;;;24.20;59.00;;;;;;4900787;29;20040;-81
2022/06/26 10:15:22;;;;;;;1.70;1.33;;;24.20;59.00;;;;;;4915403;29;20107;-80
2022/06/26 10:18:18;;;;;;;1.65;1.25;;;24.20;59.00;;;;;;4884664;29;20138;-80
2022/06/26 10:20:45;;;;;;;1.55;1.40;;;24.20;59.00;;;;;;4887592;29;20044;-79
2022/06/26 10:23:11;;;;;;;1.92;1.55;;;24.20;58.90;;;;;;4916578;29;20036;-81
2022/06/26 10:25:37;;;;;;;1.85;1.50;;;24.30;58.90;;;;;;4884925;29;20032;-83
2022/06/26 10:28:03;;;;;;;2.88;1.80;;;24.30;58.80;;;;;;4884731;29;20040;-82
2022/06/26 10:30:31;;;;;;;2.28;1.40;;;24.30;58.80;;;;;;4916258;29;20366;-81
2022/06/26 10:33:14;;;;;;;2.55;1.58;;;24.40;58.90;;;;;;4900070;29;20050;-82
2022/06/26 10:35:48;;;;;;;1.92;1.35;;;24.40;58.90;;;;;;4916412;29;20032;-80
2022/06/26 10:38:31;;;;;;;3.30;1.60;;;24.40;58.80;;;;;;4884877;29;20465;-82
2022/06/26 10:44:03;;;;;;;3.15;1.52;;;24.40;58.80;;;;;;4916331;29;20517;-82
2022/06/26 10:46:39;;;;;;;2.05;1.40;;;24.40;58.60;;;;;;4916459;29;20107;-79
2022/06/26 10:49:07;;;;;;;1.73;1.38;;;24.50;58.70;;;;;;4916214;29;20397;-86
2022/06/26 10:51:33;;;;;;;2.58;1.60;;;24.50;58.70;;;;;;4899807;29;20104;-80
2022/06/26 10:54:01;;;;;;;3.15;1.75;;;24.50;58.60;;;;;;4900620;29;20063;-81
2022/06/26 10:56:27;;;;;;;2.55;1.88;;;24.50;58.60;;;;;;4917140;29;20100;-80
2022/06/26 10:58:59;;;;;;;3.25;1.70;;;24.60;58.60;;;;;;4919514;29;20047;-79
2022/06/26 11:01:27;;;;;;;1.75;1.40;;;24.60;58.60;;;;;;4887600;29;20040;-79
2022/06/26 11:03:53;;;;;;;2.33;1.60;;;24.60;58.60;;;;;;4903781;29;20060;-79
2022/06/26 11:06:18;;;;;;;1.35;1.20;;;24.60;58.50;;;;;;4872533;29;20116;-79
2022/06/26 11:08:48;;;;;;;1.50;1.33;;;24.60;58.40;;;;;;4903777;29;20035;-78
2022/06/26 11:11:23;;;;;;;2.40;1.48;;;24.70;58.50;;;;;;4903791;29;20501;-79
2022/06/26 11:13:53;;;;;;;2.22;1.52;;;24.70;58.50;;;;;;4887883;29;20458;-79
2022/06/26 11:16:42;;;;;;;2.28;1.60;;;24.70;58.50;;;;;;4919030;29;20072;-77
2022/06/26 11:19:20;;;;;;;1.70;1.40;;;24.80;58.50;;;;;;4921237;29;20052;-79
2022/06/26 11:21:45;;;;;;;2.08;1.45;;;24.80;58.40;;;;;;4919608;29;20036;-79
2022/06/26 11:24:11;;;;;;;1.92;1.40;;;24.80;58.30;;;;;;4872576;29;20346;-78
2022/06/26 11:26:37;;;;;;;2.35;1.50;;;24.80;58.30;;;;;;4902692;29;20411;-79
2022/06/26 11:29:04;;;;;;;2.08;1.40;;;24.80;58.20;;;;;;4919628;29;20088;-79
2022/06/26 11:31:32;;;;;;;2.25;1.50;;;24.80;58.20;;;;;;4887491;29;20047;-79
2022/06/26 11:34:12;;;;;;;3.08;1.45;;;24.90;58.20;;;;;;4902740;29;20032;-79
2022/06/26 11:37:08;;;;;;;2.33;1.50;;;24.90;58.20;;;;;;4918386;29;20083;-79
2022/06/26 11:39:39;;;;;;;2.25;1.52;;;24.90;58.10;;;;;;4899999;29;20047;-78
2022/06/26 11:42:22;;;;;;;1.83;1.40;;;25.00;58.10;;;;;;4887254;29;20127;-79
2022/06/26 11:44:49;;;;;;;3.00;1.40;;;25.00;58.10;;;;;;4887251;29;20032;-79
2022/06/26 11:47:16;;;;;;;1.73;1.30;;;25.00;58.00;;;;;;4902569;29;20485;-79
2022/06/26 11:49:41;;;;;;;2.17;1.42;;;25.00;57.90;;;;;;4887882;29;20062;-78
2022/06/26 11:52:09;;;;;;;2.38;1.70;;;25.00;57.90;;;;;;4871748;29;20063;-78
2022/06/26 11:54:35;;;;;;;2.58;1.75;;;25.10;58.00;;;;;;4886862;29;20028;-78
2022/06/26 11:57:06;;;;;;;2.53;1.80;;;25.10;58.00;;;;;;4917823;29;20119;-79
2022/06/26 11:59:31;;;;;;;2.08;1.60;;;25.10;57.90;;;;;;4902668;29;20032;-79
2022/06/26 12:01:57;;;;;;;2.17;1.50;;;25.10;57.90;;;;;;4887399;29;20091;-79
2022/06/26 12:04:23;;;;;;;3.35;1.80;;;25.10;57.80;;;;;;4886594;29;20036;-78
2022/06/26 12:06:52;;;;;;;1.58;1.45;;;25.10;57.80;;;;;;4917914;29;20083;-79
2022/06/26 12:09:26;;;;;;;2.47;1.58;;;25.10;57.80;;;;;;4901449;29;20040;-78
2022/06/26 12:11:56;;;;;;;1.95;1.40;;;25.10;57.80;;;;;;4919001;29;20032;-78
2022/06/26 12:14:25;;;;;;;1.92;1.40;;;25.10;57.80;;;;;;4902487;29;20540;-78
2022/06/26 12:16:57;;;;;;;1.33;1.20;;;25.20;57.90;;;;;;4902181;29;20028;-78
2022/06/26 12:19:23;;;;;;;2.28;1.55;;;25.20;57.90;;;;;;4902461;29;20036;-79
2022/06/26 12:21:52;;;;;;;2.13;1.35;;;25.20;57.90;;;;;;4919311;29;20035;-84
2022/06/26 12:24:19;;;;;;;2.50;1.50;;;25.20;57.90;;;;;;4886555;29;20032;-80
2022/06/26 12:26:45;;;;;;;1.98;1.55;;;25.20;57.90;;;;;;4919625;29;20024;-81
2022/06/26 12:29:14;;;;;;;4.57;1.50;;;25.20;57.80;;;;;;4902191;29;20036;-80
2022/06/26 12:31:40;;;;;;;1.83;1.40;;;25.20;57.90;;;;;;4901716;29;20047;-82
2022/06/26 12:34:06;;;;;;;2.25;1.67;;;25.20;57.80;;;;;;4917643;29;20032;-79
2022/06/26 12:36:33;;;;;;;1.83;1.38;;;25.20;57.80;;;;;;4917788;29;20032;-81
2022/06/26 12:39:00;;;;;;;2.10;1.48;;;25.20;57.80;;;;;;4901573;29;20039;-80
2022/06/26 12:41:26;;;;;;;1.65;1.38;;;25.20;57.80;;;;;;4918239;29;20115;-81
2022/06/26 12:43:58;;;;;;;2.20;1.38;;;25.20;57.70;;;;;;4917827;29;20492;-80
2022/06/26 12:46:24;;;;;;;1.60;1.30;;;25.20;57.80;;;;;;4918064;29;20036;-80
2022/06/26 12:48:50;;;;;;;2.22;1.40;;;25.20;57.80;;;;;;4902336;29;20039;-79
2022/06/26 12:51:16;;;;;;;1.90;1.20;;;25.20;57.70;;;;;;4886014;29;20032;-80
2022/06/26 12:53:43;;;;;;;2.40;1.50;;;25.20;57.80;;;;;;4886025;29;20039;-80
2022/06/26 12:56:11;;;;;;;2.85;1.55;;;25.20;57.70;;;;;;4918794;29;20034;-81
2022/06/26 12:58:37;;;;;;;1.30;1.20;;;25.20;57.70;;;;;;4886253;29;20084;-81
2022/06/26 13:01:05;;;;;;;1.90;1.42;;;25.20;57.70;;;;;;4870149;29;20040;-80
2022/06/26 13:03:31;;;;;;;1.75;1.30;;;25.20;57.70;;;;;;4901525;29;20062;-80
2022/06/26 13:05:57;;;;;;;1.92;1.50;;;25.20;57.70;;;;;;4918182;29;20055;-80